sensor_id;sensor_type;location;lat;lon;timestamp;P1;durP1;ratioP1;P2;durP2;ratioP2
11646;SDS011;5880;52.342;9.662;2023-04-10T00:01:37;20.27;;;14.07;;
11646;SDS011;5880;52.342;9.662;2023-04-10T00:04:03;21.67;;;14.53;;
11646;SDS011;5880;52.342;9.662;2023-04-10T00:06:29;18.23;;;13.40;;
11646;SDS011;5880;52.342;9.662;2023-04-10T00:08:56;19.00;;;13.73;;
11646;SDS011;5880;52.342;9.662;2023-04-10T00:11:23;17.50;;;12.73;;
11646;SDS011;5880;52.342;9.662;2023-04-10T00:13:50;19.80;;;14.40;;
11646;SDS011;5880;52.342;9.662;2023-04-10T00:16:16;20.63;;;15.33;;
11646;SDS011;5880;52.342;9.662;2023-04-10T00:18:42;23.93;;;17.07;;
11646;SDS011;5880;52.342;9.662;2023-04-10T00:21:08;26.43;;;17.70;;
11646;SDS011;5880;52.342;9.662;2023-04-10T00:23:33;25.53;;;18.10;;
11646;SDS011;5880;52.342;9.662;2023-04-10T00:26:02;23.47;;;16.87;;
11646;SDS011;5880;52.342;9.662;2023-04-10T00:28:28;27.10;;;18.30;;
11646;SDS011;5880;52.342;9.662;2023-04-10T00:30:54;26.47;;;17.93;;
11646;SDS011;5880;52.342;9.662;2023-04-10T00:33:20;22.40;;;16.40;;
11646;SDS011;5880;52.342;9.662;2023-04-10T00:35:45;28.07;;;17.90;;
11646;SDS011;5880;52.342;9.662;2023-04-10T00:38:11;25.23;;;17.70;;
11646;SDS011;5880;52.342;9.662;2023-04-10T00:40:37;23.90;;;16.43;;
11646;SDS011;5880;52.342;9.662;2023-04-10T00:43:02;24.47;;;16.60;;
11646;SDS011;5880;52.342;9.662;2023-04-10T00:45:28;23.97;;;18.03;;
11646;SDS011;5880;52.342;9.662;2023-04-10T00:47:54;24.70;;;17.20;;
11646;SDS011;5880;52.342;9.662;2023-04-10T00:50:20;24.63;;;17.33;;
11646;SDS011;5880;52.342;9.662;2023-04-10T00:52:47;21.90;;;15.73;;
11646;SDS011;5880;52.342;9.662;2023-04-10T00:55:14;22.37;;;16.73;;
11646;SDS011;5880;52.342;9.662;2023-04-10T00:57:43;23.30;;;17.33;;
11646;SDS011;5880;52.342;9.662;2023-04-10T01:00:12;25.13;;;16.73;;
11646;SDS011;5880;52.342;9.662;2023-04-10T01:02:39;23.20;;;16.87;;
11646;SDS011;5880;52.342;9.662;2023-04-10T01:05:05;24.07;;;16.93;;
11646;SDS011;5880;52.342;9.662;2023-04-10T01:10:28;24.13;;;16.43;;
11646;SDS011;5880;52.342;9.662;2023-04-10T01:13:15;23.67;;;15.97;;
11646;SDS011;5880;52.342;9.662;2023-04-10T01:15:58;20.53;;;15.03;;
11646;SDS011;5880;52.342;9.662;2023-04-10T01:18:49;22.10;;;15.53;;
11646;SDS011;5880;52.342;9.662;2023-04-10T01:21:24;21.03;;;15.20;;
11646;SDS011;5880;52.342;9.662;2023-04-10T01:23:53;21.17;;;15.33;;
11646;SDS011;5880;52.342;9.662;2023-04-10T01:29:36;24.80;;;15.90;;
11646;SDS011;5880;52.342;9.662;2023-04-10T01:32:10;25.77;;;18.07;;
11646;SDS011;5880;52.342;9.662;2023-04-10T01:34:42;28.07;;;19.07;;
11646;SDS011;5880;52.342;9.662;2023-04-10T01:37:12;25.93;;;18.40;;
11646;SDS011;5880;52.342;9.662;2023-04-10T01:39:57;29.57;;;19.97;;
11646;SDS011;5880;52.342;9.662;2023-04-10T01:42:27;30.33;;;19.73;;
11646;SDS011;5880;52.342;9.662;2023-04-10T01:44:56;31.63;;;21.70;;
11646;SDS011;5880;52.342;9.662;2023-04-10T01:47:24;32.50;;;22.67;;
11646;SDS011;5880;52.342;9.662;2023-04-10T01:49:51;30.80;;;21.57;;
11646;SDS011;5880;52.342;9.662;2023-04-10T01:52:19;32.60;;;22.30;;
11646;SDS011;5880;52.342;9.662;2023-04-10T01:54:47;32.03;;;22.33;;
11646;SDS011;5880;52.342;9.662;2023-04-10T01:57:14;32.73;;;22.47;;
11646;SDS011;5880;52.342;9.662;2023-04-10T01:59:41;35.70;;;24.27;;
11646;SDS011;5880;52.342;9.662;2023-04-10T02:02:06;31.50;;;22.10;;
11646;SDS011;5880;52.342;9.662;2023-04-10T02:04:35;31.70;;;21.87;;
11646;SDS011;5880;52.342;9.662;2023-04-10T02:07:24;33.10;;;22.07;;
11646;SDS011;5880;52.342;9.662;2023-04-10T02:10:07;31.67;;;21.17;;
11646;SDS011;5880;52.342;9.662;2023-04-10T02:12:49;31.30;;;21.73;;
11646;SDS011;5880;52.342;9.662;2023-04-10T02:15:22;30.23;;;21.43;;
11646;SDS011;5880;52.342;9.662;2023-04-10T02:17:51;29.87;;;21.10;;
11646;SDS011;5880;52.342;9.662;2023-04-10T02:20:20;31.73;;;22.00;;
11646;SDS011;5880;52.342;9.662;2023-04-10T02:22:48;32.17;;;21.70;;
11646;SDS011;5880;52.342;9.662;2023-04-10T02:25:15;30.10;;;21.63;;
11646;SDS011;5880;52.342;9.662;2023-04-10T02:27:40;31.30;;;21.97;;
11646;SDS011;5880;52.342;9.662;2023-04-10T02:30:06;34.40;;;22.67;;
11646;SDS011;5880;52.342;9.662;2023-04-10T02:32:33;34.80;;;23.93;;
11646;SDS011;5880;52.342;9.662;2023-04-10T02:34:59;33.17;;;21.77;;
11646;SDS011;5880;52.342;9.662;2023-04-10T02:37:28;32.67;;;22.83;;
11646;SDS011;5880;52.342;9.662;2023-04-10T02:39:55;33.17;;;22.60;;
11646;SDS011;5880;52.342;9.662;2023-04-10T02:42:20;30.00;;;21.83;;
11646;SDS011;5880;52.342;9.662;2023-04-10T02:44:46;33.33;;;22.73;;
11646;SDS011;5880;52.342;9.662;2023-04-10T02:47:12;32.77;;;21.50;;
11646;SDS011;5880;52.342;9.662;2023-04-10T02:49:38;33.10;;;22.43;;
11646;SDS011;5880;52.342;9.662;2023-04-10T02:52:04;33.60;;;22.53;;
11646;SDS011;5880;52.342;9.662;2023-04-10T02:54:30;34.23;;;22.83;;
11646;SDS011;5880;52.342;9.662;2023-04-10T02:56:55;32.90;;;22.30;;
11646;SDS011;5880;52.342;9.662;2023-04-10T02:59:21;32.00;;;21.70;;
11646;SDS011;5880;52.342;9.662;2023-04-10T03:01:47;33.27;;;22.13;;
11646;SDS011;5880;52.342;9.662;2023-04-10T03:04:14;34.33;;;22.03;;
11646;SDS011;5880;52.342;9.662;2023-04-10T03:06:40;31.43;;;22.07;;
11646;SDS011;5880;52.342;9.662;2023-04-10T03:09:05;31.40;;;21.83;;
11646;SDS011;5880;52.342;9.662;2023-04-10T03:11:31;32.87;;;22.13;;
11646;SDS011;5880;52.342;9.662;2023-04-10T03:13:57;30.80;;;21.47;;
11646;SDS011;5880;52.342;9.662;2023-04-10T03:16:22;31.87;;;21.53;;
11646;SDS011;5880;52.342;9.662;2023-04-10T03:18:48;31.43;;;21.77;;
11646;SDS011;5880;52.342;9.662;2023-04-10T03:21:14;31.50;;;20.83;;
11646;SDS011;5880;52.342;9.662;2023-04-10T03:23:40;31.67;;;21.87;;
11646;SDS011;5880;52.342;9.662;2023-04-10T03:26:05;31.73;;;20.67;;
11646;SDS011;5880;52.342;9.662;2023-04-10T03:28:31;31.67;;;21.43;;
11646;SDS011;5880;52.342;9.662;2023-04-10T03:30:57;30.27;;;20.83;;
11646;SDS011;5880;52.342;9.662;2023-04-10T03:33:23;32.40;;;21.10;;
11646;SDS011;5880;52.342;9.662;2023-04-10T03:35:49;32.47;;;20.93;;
11646;SDS011;5880;52.342;9.662;2023-04-10T03:38:14;31.30;;;20.40;;
11646;SDS011;5880;52.342;9.662;2023-04-10T03:40:40;30.03;;;21.40;;
11646;SDS011;5880;52.342;9.662;2023-04-10T03:43:06;30.37;;;20.93;;
11646;SDS011;5880;52.342;9.662;2023-04-10T03:45:31;31.70;;;20.87;;
11646;SDS011;5880;52.342;9.662;2023-04-10T03:47:58;29.57;;;20.17;;
11646;SDS011;5880;52.342;9.662;2023-04-10T03:50:24;28.30;;;20.30;;
11646;SDS011;5880;52.342;9.662;2023-04-10T03:52:50;29.33;;;19.63;;
11646;SDS011;5880;52.342;9.662;2023-04-10T03:55:16;29.77;;;20.40;;
11646;SDS011;5880;52.342;9.662;2023-04-10T03:57:43;28.00;;;20.13;;
11646;SDS011;5880;52.342;9.662;2023-04-10T04:00:12;30.37;;;20.40;;
11646;SDS011;5880;52.342;9.662;2023-04-10T04:02:40;31.33;;;21.47;;
11646;SDS011;5880;52.342;9.662;2023-04-10T04:05:07;30.90;;;20.57;;
11646;SDS011;5880;52.342;9.662;2023-04-10T04:07:33;24.97;;;19.00;;
11646;SDS011;5880;52.342;9.662;2023-04-10T04:09:59;29.13;;;20.07;;
11646;SDS011;5880;52.342;9.662;2023-04-10T04:12:25;28.40;;;20.03;;
11646;SDS011;5880;52.342;9.662;2023-04-10T04:14:51;30.07;;;20.17;;
11646;SDS011;5880;52.342;9.662;2023-04-10T04:17:16;28.80;;;19.50;;
11646;SDS011;5880;52.342;9.662;2023-04-10T04:19:42;27.67;;;19.10;;
11646;SDS011;5880;52.342;9.662;2023-04-10T04:22:08;29.83;;;20.40;;
11646;SDS011;5880;52.342;9.662;2023-04-10T04:24:35;27.83;;;19.30;;
11646;SDS011;5880;52.342;9.662;2023-04-10T04:27:00;29.90;;;19.67;;
11646;SDS011;5880;52.342;9.662;2023-04-10T04:29:26;28.47;;;19.07;;
11646;SDS011;5880;52.342;9.662;2023-04-10T04:31:52;29.03;;;19.60;;
11646;SDS011;5880;52.342;9.662;2023-04-10T04:34:18;28.00;;;18.80;;
11646;SDS011;5880;52.342;9.662;2023-04-10T04:36:43;28.00;;;18.93;;
11646;SDS011;5880;52.342;9.662;2023-04-10T04:39:09;27.37;;;18.63;;
11646;SDS011;5880;52.342;9.662;2023-04-10T04:41:35;28.53;;;19.43;;
11646;SDS011;5880;52.342;9.662;2023-04-10T04:44:00;29.27;;;19.60;;
11646;SDS011;5880;52.342;9.662;2023-04-10T04:46:26;28.17;;;19.50;;
11646;SDS011;5880;52.342;9.662;2023-04-10T04:48:53;26.20;;;18.87;;
11646;SDS011;5880;52.342;9.662;2023-04-10T04:51:18;27.10;;;17.87;;
11646;SDS011;5880;52.342;9.662;2023-04-10T04:53:44;24.43;;;17.90;;
11646;SDS011;5880;52.342;9.662;2023-04-10T04:56:10;27.27;;;19.07;;
11646;SDS011;5880;52.342;9.662;2023-04-10T04:58:36;25.33;;;17.23;;
11646;SDS011;5880;52.342;9.662;2023-04-10T05:01:02;24.43;;;18.17;;
11646;SDS011;5880;52.342;9.662;2023-04-10T05:03:27;26.07;;;17.77;;
11646;SDS011;5880;52.342;9.662;2023-04-10T05:05:53;24.13;;;17.50;;
11646;SDS011;5880;52.342;9.662;2023-04-10T05:08:19;26.30;;;17.23;;
11646;SDS011;5880;52.342;9.662;2023-04-10T05:10:45;23.10;;;16.70;;
11646;SDS011;5880;52.342;9.662;2023-04-10T05:13:12;24.30;;;17.00;;
11646;SDS011;5880;52.342;9.662;2023-04-10T05:15:39;25.20;;;17.83;;
11646;SDS011;5880;52.342;9.662;2023-04-10T05:18:05;25.27;;;18.00;;
11646;SDS011;5880;52.342;9.662;2023-04-10T05:20:33;24.93;;;17.53;;
11646;SDS011;5880;52.342;9.662;2023-04-10T05:23:00;24.53;;;17.67;;
11646;SDS011;5880;52.342;9.662;2023-04-10T05:25:26;24.43;;;16.73;;
11646;SDS011;5880;52.342;9.662;2023-04-10T05:27:51;25.63;;;16.70;;
11646;SDS011;5880;52.342;9.662;2023-04-10T05:30:17;24.00;;;16.43;;
11646;SDS011;5880;52.342;9.662;2023-04-10T05:32:43;23.83;;;16.70;;
11646;SDS011;5880;52.342;9.662;2023-04-10T05:35:10;24.27;;;17.37;;
11646;SDS011;5880;52.342;9.662;2023-04-10T05:37:36;24.23;;;17.60;;
11646;SDS011;5880;52.342;9.662;2023-04-10T05:40:02;22.00;;;16.53;;
11646;SDS011;5880;52.342;9.662;2023-04-10T05:42:28;22.67;;;16.73;;
11646;SDS011;5880;52.342;9.662;2023-04-10T05:44:54;22.53;;;16.37;;
11646;SDS011;5880;52.342;9.662;2023-04-10T05:47:20;23.60;;;16.70;;
11646;SDS011;5880;52.342;9.662;2023-04-10T05:49:46;23.53;;;17.53;;
11646;SDS011;5880;52.342;9.662;2023-04-10T05:52:11;25.43;;;17.23;;
11646;SDS011;5880;52.342;9.662;2023-04-10T05:54:37;24.63;;;17.43;;
11646;SDS011;5880;52.342;9.662;2023-04-10T05:57:03;23.33;;;17.20;;
11646;SDS011;5880;52.342;9.662;2023-04-10T05:59:28;22.53;;;16.73;;
11646;SDS011;5880;52.342;9.662;2023-04-10T06:01:55;22.80;;;16.83;;
11646;SDS011;5880;52.342;9.662;2023-04-10T06:04:21;21.03;;;16.23;;
11646;SDS011;5880;52.342;9.662;2023-04-10T06:06:47;19.67;;;15.30;;
11646;SDS011;5880;52.342;9.662;2023-04-10T06:09:13;23.17;;;16.23;;
11646;SDS011;5880;52.342;9.662;2023-04-10T06:11:38;22.23;;;16.33;;
11646;SDS011;5880;52.342;9.662;2023-04-10T06:14:04;21.30;;;16.17;;
11646;SDS011;5880;52.342;9.662;2023-04-10T06:16:30;20.87;;;15.77;;
11646;SDS011;5880;52.342;9.662;2023-04-10T06:18:55;19.27;;;15.47;;
11646;SDS011;5880;52.342;9.662;2023-04-10T06:21:22;20.73;;;16.20;;
11646;SDS011;5880;52.342;9.662;2023-04-10T06:23:47;18.80;;;15.43;;
11646;SDS011;5880;52.342;9.662;2023-04-10T06:26:13;19.25;;;15.07;;
11646;SDS011;5880;52.342;9.662;2023-04-10T06:28:39;17.48;;;14.45;;
11646;SDS011;5880;52.342;9.662;2023-04-10T06:31:05;16.75;;;14.25;;
11646;SDS011;5880;52.342;9.662;2023-04-10T06:33:31;17.52;;;13.90;;
11646;SDS011;5880;52.342;9.662;2023-04-10T06:36:00;16.10;;;14.00;;
11646;SDS011;5880;52.342;9.662;2023-04-10T06:38:26;15.68;;;13.25;;
11646;SDS011;5880;52.342;9.662;2023-04-10T06:40:51;15.50;;;13.32;;
11646;SDS011;5880;52.342;9.662;2023-04-10T06:43:17;16.35;;;13.13;;
11646;SDS011;5880;52.342;9.662;2023-04-10T06:45:43;15.07;;;13.50;;
11646;SDS011;5880;52.342;9.662;2023-04-10T06:48:09;14.55;;;12.57;;
11646;SDS011;5880;52.342;9.662;2023-04-10T06:50:36;14.90;;;12.85;;
11646;SDS011;5880;52.342;9.662;2023-04-10T06:53:01;15.68;;;12.90;;
11646;SDS011;5880;52.342;9.662;2023-04-10T06:55:27;14.27;;;12.77;;
11646;SDS011;5880;52.342;9.662;2023-04-10T06:57:53;14.25;;;12.27;;
11646;SDS011;5880;52.342;9.662;2023-04-10T07:00:20;13.45;;;12.05;;
11646;SDS011;5880;52.342;9.662;2023-04-10T07:02:47;13.00;;;11.63;;
11646;SDS011;5880;52.342;9.662;2023-04-10T07:05:13;13.45;;;11.95;;
11646;SDS011;5880;52.342;9.662;2023-04-10T07:07:40;13.90;;;12.40;;
11646;SDS011;5880;52.342;9.662;2023-04-10T07:10:06;13.10;;;11.80;;
11646;SDS011;5880;52.342;9.662;2023-04-10T07:12:33;13.70;;;12.30;;
11646;SDS011;5880;52.342;9.662;2023-04-10T07:14:58;12.88;;;11.57;;
11646;SDS011;5880;52.342;9.662;2023-04-10T07:17:24;12.35;;;11.15;;
11646;SDS011;5880;52.342;9.662;2023-04-10T07:19:50;12.43;;;11.18;;
11646;SDS011;5880;52.342;9.662;2023-04-10T07:22:15;12.20;;;11.00;;
11646;SDS011;5880;52.342;9.662;2023-04-10T07:24:41;12.18;;;10.95;;
11646;SDS011;5880;52.342;9.662;2023-04-10T07:27:07;12.50;;;11.20;;
11646;SDS011;5880;52.342;9.662;2023-04-10T07:29:32;12.55;;;11.35;;
11646;SDS011;5880;52.342;9.662;2023-04-10T07:31:58;11.98;;;10.80;;
11646;SDS011;5880;52.342;9.662;2023-04-10T07:34:24;10.50;;;9.50;;
11646;SDS011;5880;52.342;9.662;2023-04-10T07:36:50;13.25;;;11.85;;
11646;SDS011;5880;52.342;9.662;2023-04-10T07:39:16;11.02;;;10.00;;
11646;SDS011;5880;52.342;9.662;2023-04-10T07:41:42;11.95;;;10.82;;
11646;SDS011;5880;52.342;9.662;2023-04-10T07:44:08;11.85;;;10.70;;
11646;SDS011;5880;52.342;9.662;2023-04-10T07:46:34;10.77;;;9.77;;
11646;SDS011;5880;52.342;9.662;2023-04-10T07:49:00;11.10;;;10.00;;
11646;SDS011;5880;52.342;9.662;2023-04-10T07:51:26;11.05;;;10.05;;
11646;SDS011;5880;52.342;9.662;2023-04-10T07:53:53;10.70;;;9.70;;
11646;SDS011;5880;52.342;9.662;2023-04-10T07:56:20;10.13;;;9.23;;
11646;SDS011;5880;52.342;9.662;2023-04-10T07:58:46;10.55;;;9.55;;
11646;SDS011;5880;52.342;9.662;2023-04-10T08:01:13;10.45;;;9.45;;
11646;SDS011;5880;52.342;9.662;2023-04-10T08:03:40;10.25;;;9.25;;
11646;SDS011;5880;52.342;9.662;2023-04-10T08:06:08;10.13;;;9.13;;
11646;SDS011;5880;52.342;9.662;2023-04-10T08:08:35;9.57;;;8.73;;
11646;SDS011;5880;52.342;9.662;2023-04-10T08:11:02;10.52;;;9.52;;
11646;SDS011;5880;52.342;9.662;2023-04-10T08:13:31;9.80;;;8.82;;
11646;SDS011;5880;52.342;9.662;2023-04-10T08:15:57;9.82;;;8.93;;
11646;SDS011;5880;52.342;9.662;2023-04-10T08:18:23;9.88;;;8.98;;
11646;SDS011;5880;52.342;9.662;2023-04-10T08:20:48;10.23;;;9.13;;
11646;SDS011;5880;52.342;9.662;2023-04-10T08:23:14;10.13;;;9.18;;
11646;SDS011;5880;52.342;9.662;2023-04-10T08:25:40;9.48;;;8.57;;
11646;SDS011;5880;52.342;9.662;2023-04-10T08:28:05;9.88;;;8.95;;
11646;SDS011;5880;52.342;9.662;2023-04-10T08:30:31;10.10;;;9.20;;
11646;SDS011;5880;52.342;9.662;2023-04-10T08:32:56;9.43;;;8.40;;
11646;SDS011;5880;52.342;9.662;2023-04-10T08:35:22;9.18;;;8.27;;
11646;SDS011;5880;52.342;9.662;2023-04-10T08:37:48;9.25;;;8.35;;
11646;SDS011;5880;52.342;9.662;2023-04-10T08:40:13;9.43;;;8.52;;
11646;SDS011;5880;52.342;9.662;2023-04-10T08:42:39;9.85;;;8.82;;
11646;SDS011;5880;52.342;9.662;2023-04-10T08:45:05;9.85;;;8.85;;
11646;SDS011;5880;52.342;9.662;2023-04-10T08:47:33;9.80;;;8.80;;
11646;SDS011;5880;52.342;9.662;2023-04-10T08:50:05;9.65;;;8.65;;
11646;SDS011;5880;52.342;9.662;2023-04-10T08:52:37;10.00;;;9.00;;
11646;SDS011;5880;52.342;9.662;2023-04-10T08:55:07;9.55;;;8.60;;
11646;SDS011;5880;52.342;9.662;2023-04-10T08:57:38;9.73;;;8.73;;
11646;SDS011;5880;52.342;9.662;2023-04-10T09:00:05;9.35;;;8.48;;
11646;SDS011;5880;52.342;9.662;2023-04-10T09:02:32;10.65;;;9.25;;
11646;SDS011;5880;52.342;9.662;2023-04-10T09:04:58;9.52;;;8.52;;
11646;SDS011;5880;52.342;9.662;2023-04-10T09:07:27;10.35;;;9.25;;
11646;SDS011;5880;52.342;9.662;2023-04-10T09:09:53;10.07;;;9.07;;
11646;SDS011;5880;52.342;9.662;2023-04-10T09:12:20;10.30;;;9.20;;
11646;SDS011;5880;52.342;9.662;2023-04-10T09:14:46;9.93;;;8.93;;
11646;SDS011;5880;52.342;9.662;2023-04-10T09:17:17;9.85;;;8.85;;
11646;SDS011;5880;52.342;9.662;2023-04-10T09:19:49;10.13;;;9.10;;
11646;SDS011;5880;52.342;9.662;2023-04-10T09:22:29;10.38;;;9.38;;
11646;SDS011;5880;52.342;9.662;2023-04-10T09:24:57;10.30;;;9.30;;
11646;SDS011;5880;52.342;9.662;2023-04-10T09:27:29;9.82;;;8.93;;
11646;SDS011;5880;52.342;9.662;2023-04-10T09:30:02;9.80;;;8.50;;
11646;SDS011;5880;52.342;9.662;2023-04-10T09:32:43;10.10;;;8.95;;
11646;SDS011;5880;52.342;9.662;2023-04-10T09:35:11;9.82;;;8.82;;
11646;SDS011;5880;52.342;9.662;2023-04-10T09:37:39;8.65;;;7.85;;
11646;SDS011;5880;52.342;9.662;2023-04-10T09:40:28;9.20;;;8.30;;
11646;SDS011;5880;52.342;9.662;2023-04-10T09:42:55;9.05;;;8.15;;
11646;SDS011;5880;52.342;9.662;2023-04-10T09:45:20;9.30;;;8.30;;
11646;SDS011;5880;52.342;9.662;2023-04-10T09:48:05;9.77;;;8.77;;
11646;SDS011;5880;52.342;9.662;2023-04-10T09:50:38;8.43;;;7.57;;
11646;SDS011;5880;52.342;9.662;2023-04-10T09:53:05;9.07;;;8.18;;
11646;SDS011;5880;52.342;9.662;2023-04-10T09:55:35;8.60;;;7.80;;
11646;SDS011;5880;52.342;9.662;2023-04-10T09:58:02;9.35;;;8.45;;
11646;SDS011;5880;52.342;9.662;2023-04-10T10:00:29;9.55;;;8.23;;
11646;SDS011;5880;52.342;9.662;2023-04-10T10:03:13;8.57;;;7.78;;
11646;SDS011;5880;52.342;9.662;2023-04-10T10:05:42;9.55;;;8.38;;
11646;SDS011;5880;52.342;9.662;2023-04-10T10:08:12;8.05;;;7.25;;
11646;SDS011;5880;52.342;9.662;2023-04-10T10:10:39;8.18;;;7.38;;
11646;SDS011;5880;52.342;9.662;2023-04-10T10:13:14;8.82;;;7.93;;
11646;SDS011;5880;52.342;9.662;2023-04-10T10:15:53;7.97;;;7.22;;
11646;SDS011;5880;52.342;9.662;2023-04-10T10:18:54;8.68;;;7.88;;
11646;SDS011;5880;52.342;9.662;2023-04-10T10:21:41;7.85;;;7.05;;
11646;SDS011;5880;52.342;9.662;2023-04-10T10:24:09;7.70;;;6.90;;
11646;SDS011;5880;52.342;9.662;2023-04-10T10:26:37;8.32;;;7.53;;
11646;SDS011;5880;52.342;9.662;2023-04-10T10:29:04;7.85;;;7.10;;
11646;SDS011;5880;52.342;9.662;2023-04-10T10:31:37;8.05;;;7.25;;
11646;SDS011;5880;52.342;9.662;2023-04-10T10:34:03;7.90;;;7.10;;
11646;SDS011;5880;52.342;9.662;2023-04-10T10:36:31;7.22;;;6.53;;
11646;SDS011;5880;52.342;9.662;2023-04-10T10:47:42;6.50;;;5.88;;
11646;SDS011;5880;52.342;9.662;2023-04-10T10:50:13;6.82;;;6.18;;
11646;SDS011;5880;52.342;9.662;2023-04-10T10:52:51;7.13;;;6.10;;
11646;SDS011;5880;52.342;9.662;2023-04-10T10:58:01;6.47;;;5.88;;
11646;SDS011;5880;52.342;9.662;2023-04-10T11:08:47;5.65;;;5.07;;
11646;SDS011;5880;52.342;9.662;2023-04-10T11:11:20;6.72;;;6.05;;
11646;SDS011;5880;52.342;9.662;2023-04-10T11:16:17;6.43;;;5.80;;
11646;SDS011;5880;52.342;9.662;2023-04-10T11:21:16;6.20;;;5.60;;
11646;SDS011;5880;52.342;9.662;2023-04-10T11:28:59;6.13;;;5.53;;
11646;SDS011;5880;52.342;9.662;2023-04-10T11:31:25;6.70;;;6.10;;
11646;SDS011;5880;52.342;9.662;2023-04-10T11:36:24;7.28;;;6.50;;
11646;SDS011;5880;52.342;9.662;2023-04-10T11:41:30;6.30;;;5.68;;
11646;SDS011;5880;52.342;9.662;2023-04-10T11:43:59;6.93;;;6.25;;
11646;SDS011;5880;52.342;9.662;2023-04-10T11:46:27;7.13;;;6.15;;
11646;SDS011;5880;52.342;9.662;2023-04-10T11:48:54;7.03;;;6.32;;
11646;SDS011;5880;52.342;9.662;2023-04-10T11:51:28;6.85;;;6.15;;
11646;SDS011;5880;52.342;9.662;2023-04-10T11:54:08;6.60;;;5.80;;
11646;SDS011;5880;52.342;9.662;2023-04-10T11:56:44;6.70;;;5.80;;
11646;SDS011;5880;52.342;9.662;2023-04-10T11:59:29;8.10;;;6.78;;
11646;SDS011;5880;52.342;9.662;2023-04-10T12:02:12;7.00;;;6.30;;
11646;SDS011;5880;52.342;9.662;2023-04-10T12:04:39;6.82;;;6.13;;
11646;SDS011;5880;52.342;9.662;2023-04-10T12:07:08;7.18;;;6.47;;
11646;SDS011;5880;52.342;9.662;2023-04-10T12:09:34;6.00;;;5.40;;
11646;SDS011;5880;52.342;9.662;2023-04-10T12:12:01;5.90;;;5.30;;
11646;SDS011;5880;52.342;9.662;2023-04-10T12:14:35;5.40;;;4.90;;
11646;SDS011;5880;52.342;9.662;2023-04-10T12:17:03;6.30;;;4.38;;
11646;SDS011;5880;52.342;9.662;2023-04-10T12:19:31;5.28;;;4.78;;
11646;SDS011;5880;52.342;9.662;2023-04-10T12:21:59;5.03;;;4.53;;
11646;SDS011;5880;52.342;9.662;2023-04-10T12:24:41;4.97;;;4.47;;
11646;SDS011;5880;52.342;9.662;2023-04-10T12:27:21;5.22;;;4.72;;
11646;SDS011;5880;52.342;9.662;2023-04-10T12:29:53;4.78;;;4.38;;
11646;SDS011;5880;52.342;9.662;2023-04-10T12:32:21;4.68;;;4.28;;
11646;SDS011;5880;52.342;9.662;2023-04-10T12:34:54;5.13;;;4.65;;
11646;SDS011;5880;52.342;9.662;2023-04-10T12:37:22;5.18;;;4.68;;
11646;SDS011;5880;52.342;9.662;2023-04-10T12:40:16;5.00;;;4.50;;
11646;SDS011;5880;52.342;9.662;2023-04-10T12:42:44;4.60;;;4.20;;
11646;SDS011;5880;52.342;9.662;2023-04-10T12:45:10;4.68;;;4.28;;
11646;SDS011;5880;52.342;9.662;2023-04-10T12:47:47;5.90;;;4.47;;
11646;SDS011;5880;52.342;9.662;2023-04-10T12:50:18;4.55;;;4.15;;
11646;SDS011;5880;52.342;9.662;2023-04-10T12:53:03;5.07;;;4.57;;
11646;SDS011;5880;52.342;9.662;2023-04-10T12:55:31;5.00;;;4.50;;
11646;SDS011;5880;52.342;9.662;2023-04-10T12:57:57;5.00;;;4.60;;
11646;SDS011;5880;52.342;9.662;2023-04-10T13:00:41;4.45;;;4.05;;
11646;SDS011;5880;52.342;9.662;2023-04-10T13:03:06;5.40;;;4.90;;
11646;SDS011;5880;52.342;9.662;2023-04-10T13:05:32;5.60;;;5.10;;
11646;SDS011;5880;52.342;9.662;2023-04-10T13:07:58;5.03;;;4.55;;
11646;SDS011;5880;52.342;9.662;2023-04-10T13:10:23;4.78;;;4.38;;
11646;SDS011;5880;52.342;9.662;2023-04-10T13:12:49;4.90;;;4.50;;
11646;SDS011;5880;52.342;9.662;2023-04-10T13:15:15;5.18;;;4.68;;
11646;SDS011;5880;52.342;9.662;2023-04-10T13:17:40;5.03;;;4.63;;
11646;SDS011;5880;52.342;9.662;2023-04-10T13:20:07;5.43;;;4.93;;
11646;SDS011;5880;52.342;9.662;2023-04-10T13:22:34;5.25;;;4.75;;
11646;SDS011;5880;52.342;9.662;2023-04-10T13:25:00;5.93;;;4.85;;
11646;SDS011;5880;52.342;9.662;2023-04-10T13:27:27;5.63;;;4.63;;
11646;SDS011;5880;52.342;9.662;2023-04-10T13:29:53;5.10;;;4.60;;
11646;SDS011;5880;52.342;9.662;2023-04-10T13:32:19;4.70;;;4.22;;
11646;SDS011;5880;52.342;9.662;2023-04-10T13:34:45;5.25;;;4.32;;
11646;SDS011;5880;52.342;9.662;2023-04-10T13:37:11;4.80;;;4.30;;
11646;SDS011;5880;52.342;9.662;2023-04-10T13:39:37;4.75;;;4.35;;
11646;SDS011;5880;52.342;9.662;2023-04-10T13:42:03;4.85;;;4.35;;
11646;SDS011;5880;52.342;9.662;2023-04-10T13:44:28;4.47;;;4.07;;
11646;SDS011;5880;52.342;9.662;2023-04-10T13:46:54;4.70;;;4.30;;
11646;SDS011;5880;52.342;9.662;2023-04-10T13:49:20;4.38;;;3.97;;
11646;SDS011;5880;52.342;9.662;2023-04-10T13:51:46;5.30;;;4.15;;
11646;SDS011;5880;52.342;9.662;2023-04-10T13:54:12;4.20;;;3.80;;
11646;SDS011;5880;52.342;9.662;2023-04-10T13:56:40;4.68;;;4.28;;
11646;SDS011;5880;52.342;9.662;2023-04-10T13:59:07;3.97;;;3.67;;
11646;SDS011;5880;52.342;9.662;2023-04-10T14:01:32;4.18;;;3.78;;
11646;SDS011;5880;52.342;9.662;2023-04-10T14:03:58;4.10;;;3.70;;
11646;SDS011;5880;52.342;9.662;2023-04-10T14:06:23;3.92;;;3.63;;
11646;SDS011;5880;52.342;9.662;2023-04-10T14:08:51;4.38;;;3.90;;
11646;SDS011;5880;52.342;9.662;2023-04-10T14:11:16;4.60;;;4.20;;
11646;SDS011;5880;52.342;9.662;2023-04-10T14:13:42;4.55;;;4.10;;
11646;SDS011;5880;52.342;9.662;2023-04-10T14:16:08;5.50;;;4.47;;
11646;SDS011;5880;52.342;9.662;2023-04-10T14:18:34;4.80;;;4.40;;
11646;SDS011;5880;52.342;9.662;2023-04-10T14:21:00;4.38;;;3.97;;
11646;SDS011;5880;52.342;9.662;2023-04-10T14:23:26;4.05;;;3.70;;
11646;SDS011;5880;52.342;9.662;2023-04-10T14:25:51;4.38;;;3.88;;
11646;SDS011;5880;52.342;9.662;2023-04-10T14:28:17;4.18;;;3.85;;
11646;SDS011;5880;52.342;9.662;2023-04-10T14:30:43;4.07;;;3.78;;
11646;SDS011;5880;52.342;9.662;2023-04-10T14:33:12;4.35;;;3.95;;
11646;SDS011;5880;52.342;9.662;2023-04-10T14:35:38;3.67;;;3.38;;
11646;SDS011;5880;52.342;9.662;2023-04-10T14:38:04;4.55;;;3.97;;
11646;SDS011;5880;52.342;9.662;2023-04-10T14:40:30;3.90;;;3.47;;
11646;SDS011;5880;52.342;9.662;2023-04-10T14:42:56;4.82;;;3.65;;
11646;SDS011;5880;52.342;9.662;2023-04-10T14:45:22;4.45;;;4.05;;
11646;SDS011;5880;52.342;9.662;2023-04-10T14:47:47;4.15;;;3.75;;
11646;SDS011;5880;52.342;9.662;2023-04-10T14:50:13;4.38;;;3.97;;
11646;SDS011;5880;52.342;9.662;2023-04-10T14:52:39;4.22;;;3.80;;
11646;SDS011;5880;52.342;9.662;2023-04-10T14:55:04;3.67;;;3.38;;
11646;SDS011;5880;52.342;9.662;2023-04-10T14:57:30;4.75;;;3.65;;
11646;SDS011;5880;52.342;9.662;2023-04-10T14:59:56;4.03;;;3.47;;
11646;SDS011;5880;52.342;9.662;2023-04-10T15:02:24;4.07;;;3.67;;
11646;SDS011;5880;52.342;9.662;2023-04-10T15:04:50;4.28;;;3.90;;
11646;SDS011;5880;52.342;9.662;2023-04-10T15:07:15;3.78;;;3.47;;
11646;SDS011;5880;52.342;9.662;2023-04-10T15:09:41;3.50;;;3.20;;
11646;SDS011;5880;52.342;9.662;2023-04-10T15:12:08;3.45;;;3.15;;
11646;SDS011;5880;52.342;9.662;2023-04-10T15:14:34;3.45;;;3.15;;
11646;SDS011;5880;52.342;9.662;2023-04-10T15:17:00;3.63;;;3.33;;
11646;SDS011;5880;52.342;9.662;2023-04-10T15:19:26;3.83;;;3.38;;
11646;SDS011;5880;52.342;9.662;2023-04-10T15:21:52;3.83;;;3.50;;
11646;SDS011;5880;52.342;9.662;2023-04-10T15:24:20;3.50;;;3.20;;
11646;SDS011;5880;52.342;9.662;2023-04-10T15:26:45;3.70;;;3.30;;
11646;SDS011;5880;52.342;9.662;2023-04-10T15:29:11;3.53;;;3.22;;
11646;SDS011;5880;52.342;9.662;2023-04-10T15:31:38;3.75;;;3.45;;